Time;durP1;ratioP1;P1;durP2;ratioP2;P2;SDS_P1;SDS_P2;PMS_P1;PMS_P2;Temp;Humidity;BMP_temperature;BMP_pressure;BME280_temperature;BME280_humidity;BME280_pressure;Samples;Min_cycle;Max_cycle;Signal;HPM_P1;HPM_P2
2023/10/09 00:03:37;;;;;;;0.00;0.00;;;;;;;12.12;69.94;101840.97;15413600;28;20368;-50
2023/10/09 00:11:16;;;;;;;0.38;0.38;;;;;;;12.17;69.43;101818.88;15490014;28;20431;-51
2023/10/09 00:18:53;;;;;;;0.00;0.00;;;;;;;12.23;69.55;101824.31;15478102;28;20128;-51
2023/10/09 00:26:26;;;;;;;0.22;0.22;;;;;;;12.07;69.40;101799.53;15494257;28;20202;-52
2023/10/09 00:34:07;;;;;;;0.52;0.38;;;;;;;11.86;69.96;101782.41;15493340;28;20042;-53
2023/10/09 00:41:41;;;;;;;0.00;0.00;;;;;;;11.77;70.01;101748.56;15460123;28;20294;-50
2023/10/09 00:49:21;;;;;;;0.00;0.00;;;;;;;11.37;72.22;101741.94;15474679;28;20399;-50
2023/10/09 00:56:58;;;;;;;0.10;0.10;;;;;;;11.59;71.76;101724.81;15450546;28;20101;-50
2023/10/09 01:04:37;;;;;;;0.60;0.60;;;;;;;11.48;72.43;101730.72;15413824;28;20047;-51
2023/10/09 01:12:16;;;;;;;0.00;0.00;;;;;;;11.67;72.44;101731.91;15415287;28;20097;-50
2023/10/09 01:19:55;;;;;;;0.00;0.00;;;;;;;11.60;72.93;101696.88;15439761;28;20070;-52
2023/10/09 01:27:32;;;;;;;0.00;0.00;;;;;;;11.43;72.84;101671.31;15468897;28;20038;-52
2023/10/09 01:35:21;;;;;;;0.00;0.00;;;;;;;11.60;73.23;101650.34;15457862;28;20403;-50
2023/10/09 01:42:56;;;;;;;0.25;0.10;;;;;;;11.61;72.49;101619.72;15457052;28;20137;-51
2023/10/09 01:50:31;;;;;;;0.15;0.10;;;;;;;11.37;72.99;101613.75;15447446;28;20439;-50
2023/10/09 01:58:07;;;;;;;0.00;0.00;;;;;;;11.63;72.82;101593.50;15455339;28;20493;-53
2023/10/09 02:05:42;;;;;;;0.00;0.00;;;;;;;11.28;73.21;101568.41;15396070;28;20082;-50
2023/10/09 02:13:17;;;;;;;0.00;0.00;;;;;;;11.55;72.63;101561.38;15467919;28;20098;-50
2023/10/09 02:21:00;;;;;;;0.00;0.00;;;;;;;11.42;72.75;101545.97;15408919;28;20042;-51
2023/10/09 02:28:35;;;;;;;0.13;0.10;;;;;;;11.49;73.29;101574.56;15459311;28;20624;-53
2023/10/09 02:36:08;;;;;;;0.15;0.15;;;;;;;11.86;72.89;101582.50;15465395;28;20551;-49
2023/10/09 02:43:46;;;;;;;0.00;0.00;;;;;;;11.56;74.29;101557.63;15457958;28;20503;-50
2023/10/09 02:51:32;;;;;;;0.00;0.00;;;;;;;11.29;75.72;101551.25;15446477;28;20100;-49
2023/10/09 02:59:08;;;;;;;0.00;0.00;;;;;;;11.36;75.07;101509.13;15439822;28;20097;-52
2023/10/09 03:06:49;;;;;;;0.00;0.00;;;;;;;11.10;75.35;101475.69;15420833;28;20134;-52
2023/10/09 03:14:26;;;;;;;0.70;0.15;;;;;;;10.61;77.70;101463.06;15429977;28;20380;-50
2023/10/09 03:22:09;;;;;;;0.00;0.00;;;;;;;10.91;77.42;101469.13;15498028;28;20046;-50
2023/10/09 03:29:49;;;;;;;0.15;0.15;;;;;;;10.43;78.94;101452.78;15641842;23;20041;-50
2023/10/09 03:37:33;;;;;;;0.00;0.00;;;;;;;10.71;77.52;101425.16;15679719;28;20107;-50
2023/10/09 03:45:18;;;;;;;0.00;0.00;;;;;;;10.65;78.11;101397.22;15675927;28;20037;-49
2023/10/09 03:52:51;;;;;;;0.00;0.00;;;;;;;10.46;78.68;101396.03;15677296;28;20477;-49
2023/10/09 04:00:28;;;;;;;;;;;;;;;11.01;76.52;101369.41;15651743;28;20041;-50
2023/10/09 04:08:01;;;;;;;0.00;0.00;;;;;;;10.67;77.23;101365.63;15657935;28;19921;-50
2023/10/09 04:15:36;;;;;;;0.00;0.00;;;;;;;10.48;78.27;101369.81;15676435;28;20327;-49
2023/10/09 04:23:15;;;;;;;1.50;0.95;;;;;;;10.10;80.10;101371.94;15677018;28;20079;-49
2023/10/09 04:30:55;;;;;;;0.05;0.05;;;;;;;10.14;80.38;101357.13;15674395;28;20053;-52
2023/10/09 04:38:34;;;;;;;0.00;0.00;;;;;;;10.78;78.59;101403.75;15675798;28;20049;-49
2023/10/09 04:46:12;;;;;;;0.03;0.03;;;;;;;10.02;80.89;101395.38;15672054;28;20120;-50
2023/10/09 04:53:59;;;;;;;0.00;0.00;;;;;;;9.84;80.79;101363.63;15675338;28;20468;-48
2023/10/09 05:01:43;;;;;;;0.00;0.00;;;;;;;9.91;79.80;101364.53;15672562;28;20064;-48
2023/10/09 05:09:20;;;;;;;0.15;0.15;;;;;;;10.28;77.72;101368.84;15674963;28;20099;-53
2023/10/09 05:17:01;;;;;;;4.68;2.17;;;;;;;10.17;77.21;101354.06;15670109;28;20090;-48
2023/10/09 05:24:45;;;;;;;0.00;0.00;;;;;;;10.19;77.53;101341.28;15672823;28;20497;-51
2023/10/09 05:32:27;;;;;;;0.00;0.00;;;;;;;9.91;79.73;101357.31;15673538;28;20063;-50
2023/10/09 05:40:22;;;;;;;0.00;0.00;;;;;;;10.17;79.15;101353.25;15673871;28;20040;-52
2023/10/09 05:47:57;;;;;;;0.47;0.45;;;;;;;9.61;81.29;101355.75;15666333;28;20037;-48
2023/10/09 06:03:53;;;;;;;0.77;0.47;;;;;;;9.93;80.64;101366.00;15674682;28;20438;-51
2023/10/09 06:19:27;;;;;;;0.00;0.00;;;;;;;10.17;79.85;101355.94;15685625;28;20178;-50
2023/10/09 06:27:14;;;;;;;;;;;;;;;10.10;80.35;101355.84;15683857;28;20029;-49
2023/10/09 06:34:52;;;;;;;0.38;0.38;;;;;;;10.44;79.01;101349.81;15682669;28;19921;-51
2023/10/09 06:42:43;;;;;;;0.65;0.25;;;;;;;10.39;78.38;101346.84;15683265;28;20052;-49
2023/10/09 06:50:55;;;;;;;1.17;0.52;;;;;;;10.71;77.15;101333.88;15677877;28;20076;-50
2023/10/09 06:58:26;;;;;;;0.10;0.10;;;;;;;10.72;77.00;101330.16;15670801;28;20119;-52
2023/10/09 07:06:23;;;;;;;0.00;0.00;;;;;;;10.63;77.28;101317.91;15681391;28;20056;-49
2023/10/09 07:13:58;;;;;;;0.00;0.00;;;;;;;10.50;78.24;101329.41;15679828;28;20102;-48
2023/10/09 07:21:35;;;;;;;1.35;0.95;;;;;;;10.86;76.95;101315.78;15679003;28;20052;-51
2023/10/09 07:29:21;;;;;;;6.13;0.35;;;;;;;10.79;77.95;101331.03;15679273;28;20045;-53
2023/10/09 07:36:56;;;;;;;0.22;0.20;;;;;;;11.24;75.40;101329.63;15680490;28;20037;-51
2023/10/09 07:44:37;;;;;;;0.22;0.17;;;;;;;11.26;75.21;101332.09;15675418;28;20103;-50
2023/10/09 07:52:12;;;;;;;0.00;0.00;;;;;;;11.47;74.74;101326.63;15679541;28;20087;-54
2023/10/09 08:00:00;;;;;;;0.00;0.00;;;;;;;11.09;75.67;101344.22;15676503;28;20071;-48
2023/10/09 08:07:35;;;;;;;0.45;0.45;;;;;;;11.20;74.47;101368.66;15679273;28;20055;-50
2023/10/09 08:15:27;;;;;;;0.00;0.00;;;;;;;11.28;75.04;101386.47;15678758;28;20049;-53
2023/10/09 08:23:04;;;;;;;0.00;0.00;;;;;;;11.36;75.00;101370.19;15678517;28;20449;-49
2023/10/09 08:30:50;;;;;;;0.10;0.10;;;;;;;11.73;74.53;101371.56;15677943;28;20056;-49
2023/10/09 08:38:24;;;;;;;0.00;0.00;;;;;;;11.46;75.30;101384.06;15675861;28;20493;-50
2023/10/09 08:46:00;;;;;;;0.17;0.17;;;;;;;11.41;74.74;101370.41;15672471;28;20053;-49
2023/10/09 08:53:42;;;;;;;0.00;0.00;;;;;;;11.39;75.70;101364.41;15675016;28;20118;-50
2023/10/09 09:01:19;;;;;;;0.00;0.00;;;;;;;11.16;76.16;101353.97;15662638;28;20048;-49
2023/10/09 09:09:13;;;;;;;0.00;0.00;;;;;;;11.08;77.34;101340.69;15674777;28;20044;-52
2023/10/09 09:16:49;;;;;;;0.20;0.20;;;;;;;11.31;75.73;101350.31;15675228;28;20572;-49
2023/10/09 09:24:33;;;;;;;0.00;0.00;;;;;;;11.47;75.97;101345.44;15677929;28;20044;-52
2023/10/09 09:32:15;;;;;;;0.00;0.00;;;;;;;11.32;77.00;101362.72;15676587;28;20413;-46
2023/10/09 09:39:51;;;;;;;0.10;0.10;;;;;;;11.18;76.81;101356.44;15673326;28;20267;-51
2023/10/09 09:47:27;;;;;;;0.00;0.00;;;;;;;11.26;76.70;101358.97;15669511;28;20049;-48
2023/10/09 09:55:03;;;;;;;0.00;0.00;;;;;;;11.44;76.36;101364.66;15673779;28;20064;-47
2023/10/09 10:02:38;;;;;;;1.02;0.30;;;;;;;11.70;75.29;101365.75;15669976;28;20052;-47
2023/10/09 10:10:47;;;;;;;0.15;0.15;;;;;;;11.70;76.01;101352.31;15673186;28;20048;-47
2023/10/09 10:18:21;;;;;;;0.32;0.32;;;;;;;11.97;75.28;101347.84;15672741;28;20095;-47
2023/10/09 10:25:59;;;;;;;;;;;;;;;11.56;75.71;101313.78;15672424;28;20040;-51
2023/10/09 10:34:06;;;;;;;0.52;0.52;;;;;;;12.31;74.75;101352.25;15671059;28;19929;-50
2023/10/09 10:41:51;;;;;;;0.70;0.45;;;;;;;11.87;75.41;101356.31;15670050;28;20041;-47
2023/10/09 10:49:26;;;;;;;0.10;0.10;;;;;;;12.37;73.38;101334.44;15670872;28;20114;-51
2023/10/09 10:57:01;;;;;;;0.00;0.00;;;;;;;12.05;74.00;101342.28;15652768;28;20052;-48
2023/10/09 11:04:41;;;;;;;0.45;0.32;;;;;;;11.86;74.41;101340.41;15676236;28;20044;-48
2023/10/09 11:12:22;;;;;;;1.30;0.45;;;;;;;12.04;74.02;101346.03;15681133;28;20520;-49
2023/10/09 11:19:56;;;;;;;0.15;0.15;;;;;;;11.54;74.75;101337.38;15669368;28;20053;-46
2023/10/09 11:27:32;;;;;;;0.10;0.10;;;;;;;11.75;75.04;101312.22;15652455;28;20137;-47
2023/10/09 11:35:19;;;;;;;0.10;0.10;;;;;;;11.67;75.84;101302.47;15673309;28;20033;-51
2023/10/09 11:42:57;;;;;;;0.00;0.00;;;;;;;11.69;75.04;101311.16;15672323;28;20477;-47
2023/10/09 11:51:17;;;;;;;0.05;0.05;;;;;;;12.19;73.61;101302.75;15670465;28;20052;-49
2023/10/09 11:58:49;;;;;;;0.22;0.22;;;;;;;12.00;74.31;101291.78;15673509;28;20041;-51
2023/10/09 12:06:23;;;;;;;0.17;0.13;;;;;;;11.94;75.06;101289.94;15679026;28;20041;-52
2023/10/09 12:13:58;;;;;;;0.10;0.10;;;;;;;12.20;74.22;101299.84;15672602;28;20128;-49
2023/10/09 12:21:31;;;;;;;0.28;0.28;;;;;;;11.95;74.98;101283.50;15676281;28;20051;-51
2023/10/09 12:29:10;;;;;;;0.10;0.10;;;;;;;11.78;74.73;101294.81;15676458;28;20060;-46
2023/10/09 12:36:46;;;;;;;0.00;0.00;;;;;;;11.58;76.53;101292.94;15671579;28;20064;-52
2023/10/09 12:44:20;;;;;;;0.00;0.00;;;;;;;12.03;74.91;101293.25;15666239;28;20045;-47
2023/10/09 12:51:57;;;;;;;0.10;0.10;;;;;;;12.31;72.99;101279.56;15668627;28;20532;-46
2023/10/09 12:59:31;;;;;;;0.10;0.10;;;;;;;11.99;73.74;101278.53;15665862;28;20107;-52
2023/10/09 13:07:07;;;;;;;0.65;0.65;;;;;;;12.25;73.82;101267.75;15661219;28;20059;-49
2023/10/09 13:14:41;;;;;;;0.00;0.00;;;;;;;12.21;73.60;101282.66;15651524;28;20064;-48
2023/10/09 13:22:14;;;;;;;0.90;0.20;;;;;;;12.26;73.91;101290.13;15660821;28;20041;-53
2023/10/09 13:29:52;;;;;;;0.00;0.00;;;;;;;12.41;72.55;101279.16;15664762;28;20111;-48
2023/10/09 13:37:27;;;;;;;0.03;0.03;;;;;;;12.03;73.88;101279.78;15656364;28;20045;-50
2023/10/09 13:45:04;;;;;;;0.57;0.57;;;;;;;12.02;74.82;101293.44;15669007;28;20043;-51
2023/10/09 13:52:39;;;;;;;0.73;0.68;;;;;;;12.20;73.98;101299.84;15666157;28;20445;-53
2023/10/09 14:00:32;;;;;;;0.00;0.00;;;;;;;12.16;74.49;101295.09;15662593;28;20049;-50
2023/10/09 14:08:08;;;;;;;0.03;0.03;;;;;;;12.43;73.61;101287.84;15667674;28;20061;-50
2023/10/09 14:15:45;;;;;;;0.10;0.10;;;;;;;12.28;74.33;101287.22;15656507;28;20098;-50
2023/10/09 14:23:21;;;;;;;0.00;0.00;;;;;;;12.06;73.80;101289.31;15676154;28;20056;-44
2023/10/09 14:31:00;;;;;;;0.47;0.47;;;;;;;12.37;73.75;101273.34;15670387;28;20046;-46
2023/10/09 14:38:38;;;;;;;1.55;1.02;;;;;;;12.23;74.37;101266.31;15679862;28;20642;-49
2023/10/09 14:46:16;;;;;;;0.00;0.00;;;;;;;12.35;73.56;101253.88;15681599;28;20084;-49
2023/10/09 14:53:49;;;;;;;0.45;0.40;;;;;;;12.28;73.62;101269.22;15682116;28;20056;-52
2023/10/09 15:01:25;;;;;;;0.25;0.10;;;;;;;12.40;73.09;101237.09;15678549;28;20037;-47
2023/10/09 15:09:00;;;;;;;0.35;0.35;;;;;;;12.62;72.92;101257.34;15653538;28;20037;-50
2023/10/09 15:16:34;;;;;;;0.00;0.00;;;;;;;12.74;72.55;101279.09;15667862;28;20083;-47
2023/10/09 15:24:08;;;;;;;0.05;0.05;;;;;;;12.52;73.08;101268.56;15683497;22;20540;-48
2023/10/09 15:31:43;;;;;;;0.50;0.20;;;;;;;12.68;73.37;101267.31;15588186;28;20533;-50
2023/10/09 15:39:19;;;;;;;0.00;0.00;;;;;;;12.51;73.71;101266.09;15591130;28;20296;-47
2023/10/09 15:46:59;;;;;;;0.20;0.20;;;;;;;12.49;74.03;101273.53;15591112;28;20053;-48
2023/10/09 15:54:32;;;;;;;0.20;0.20;;;;;;;12.54;74.29;101278.28;15600388;28;20049;-47
2023/10/09 16:02:07;;;;;;;0.80;0.80;;;;;;;12.48;74.42;101283.47;15599839;28;20136;-47
2023/10/09 16:09:41;;;;;;;7.03;1.45;;;;;;;12.09;76.10;101283.50;15608259;28;20114;-47
2023/10/09 16:17:16;;;;;;;0.00;0.00;;;;;;;12.15;75.69;101301.50;15606574;28;20099;-47
2023/10/09 16:24:50;;;;;;;0.10;0.10;;;;;;;12.51;74.66;101296.53;15598201;28;20506;-47
2023/10/09 16:32:24;;;;;;;0.22;0.22;;;;;;;12.43;74.45;101306.69;15594661;28;20080;-50
2023/10/09 16:39:58;;;;;;;0.40;0.32;;;;;;;12.43;74.87;101306.69;15607181;28;20056;-47
2023/10/09 16:47:36;;;;;;;0.90;0.65;;;;;;;12.06;76.48;101322.41;15567237;28;20045;-52
2023/10/09 16:55:10;;;;;;;0.10;0.10;;;;;;;12.34;76.24;101324.09;15597739;28;20060;-48
2023/10/09 17:02:46;;;;;;;0.43;0.43;;;;;;;11.91;77.87;101321.78;15614366;28;20095;-47
2023/10/09 17:10:19;;;;;;;0.22;0.22;;;;;;;11.44;80.07;101318.13;15607515;28;20549;-48
2023/10/09 17:18:00;;;;;;;1.10;0.30;;;;;;;11.81;78.67;101326.69;15593921;28;20033;-50
2023/10/09 17:25:34;;;;;;;0.60;0.40;;;;;;;11.68;79.39;101325.63;15605583;28;20160;-47
2023/10/09 17:33:09;;;;;;;0.55;0.55;;;;;;;11.62;80.17;101331.81;15600403;28;20073;-48
2023/10/09 17:40:48;;;;;;;0.22;0.22;;;;;;;11.69;79.43;101329.97;15580043;28;20089;-50
2023/10/09 17:48:23;;;;;;;1.15;0.60;;;;;;;11.92;78.77;101345.78;15600173;28;20049;-49
2023/10/09 17:55:56;;;;;;;0.25;0.25;;;;;;;11.95;78.26;101336.47;15603022;28;20064;-48
2023/10/09 18:03:32;;;;;;;0.00;0.00;;;;;;;12.07;77.84;101334.00;15611667;28;20573;-47
2023/10/09 18:11:06;;;;;;;0.52;0.52;;;;;;;11.89;78.72;101346.22;15613032;28;20056;-48
2023/10/09 18:18:41;;;;;;;0.10;0.10;;;;;;;11.92;78.43;101339.56;15598277;28;20038;-48
2023/10/09 18:26:14;;;;;;;1.08;0.93;;;;;;;11.93;78.52;101335.84;15604376;28;20046;-49
2023/10/09 18:33:52;;;;;;;0.57;0.55;;;;;;;11.67;79.14;101329.34;15614743;28;20061;-46
2023/10/09 18:41:25;;;;;;;2.72;0.95;;;;;;;11.46;79.95;101327.63;15607755;28;20113;-46
2023/10/09 18:49:01;;;;;;;0.68;0.68;;;;;;;11.73;79.31;101316.94;15607344;28;20460;-50
2023/10/09 18:56:35;;;;;;;0.28;0.28;;;;;;;11.15;81.21;101313.88;15613917;28;20103;-47
2023/10/09 19:04:10;;;;;;;0.40;0.32;;;;;;;11.68;79.22;101304.13;15613484;28;20064;-49
2023/10/09 19:11:43;;;;;;;0.52;0.38;;;;;;;11.54;79.83;101317.75;15605845;28;20103;-47
2023/10/09 19:19:18;;;;;;;0.00;0.00;;;;;;;11.81;79.12;101327.53;15612944;28;20537;-49
2023/10/09 19:26:51;;;;;;;0.70;0.70;;;;;;;12.04;78.12;101320.97;15605884;28;20060;-49
2023/10/09 19:34:26;;;;;;;1.85;0.70;;;;;;;12.23;77.12;101331.75;15602226;28;20049;-47
2023/10/09 19:41:59;;;;;;;0.05;0.05;;;;;;;12.18;77.71;101350.38;15606221;28;20038;-49
2023/10/09 19:49:34;;;;;;;1.65;0.52;;;;;;;11.82;78.31;101342.66;15607321;28;20596;-47
2023/10/09 19:57:08;;;;;;;0.00;0.00;;;;;;;12.03;77.90;101349.75;15606731;28;20047;-49
2023/10/09 20:04:42;;;;;;;0.47;0.40;;;;;;;12.06;77.52;101354.69;15604303;28;20148;-50
2023/10/09 20:12:15;;;;;;;0.10;0.10;;;;;;;12.06;77.51;101352.00;15605043;28;20057;-47
2023/10/09 20:19:50;;;;;;;0.10;0.10;;;;;;;12.40;76.83;101355.56;15606064;28;20036;-49
2023/10/09 20:27:30;;;;;;;0.63;0.63;;;;;;;12.21;77.58;101365.28;15597430;28;20041;-49
2023/10/09 20:35:11;;;;;;;0.50;0.50;;;;;;;12.29;77.16;101365.06;15595394;28;20053;-51
2023/10/09 20:42:45;;;;;;;0.75;0.75;;;;;;;12.45;76.76;101369.22;15605504;28;20156;-49
2023/10/09 20:50:19;;;;;;;2.78;1.25;;;;;;;11.98;78.37;101374.56;15606099;28;20045;-49
2023/10/09 20:57:56;;;;;;;0.13;0.13;;;;;;;12.17;77.77;101375.66;15593357;28;20355;-47
2023/10/09 21:05:30;;;;;;;0.38;0.35;;;;;;;12.18;77.62;101379.97;15597772;28;20056;-48
2023/10/09 21:13:04;;;;;;;0.00;0.00;;;;;;;12.23;77.69;101374.00;15603030;28;20464;-47
2023/10/09 21:20:39;;;;;;;;;;;;;;;11.74;79.29;101383.16;15597922;28;20049;-47
2023/10/09 21:28:12;;;;;;;0.32;0.32;;;;;;;11.90;78.71;101382.84;15602259;28;20374;-48
2023/10/09 21:35:46;;;;;;;1.80;1.70;;;;;;;12.06;78.26;101376.22;15580735;28;20505;-50
2023/10/09 21:43:20;;;;;;;0.00;0.00;;;;;;;11.95;79.60;101390.28;15590592;28;20120;-51
2023/10/09 21:50:56;;;;;;;0.65;0.55;;;;;;;12.21;77.98;101382.25;15612034;28;20128;-52
2023/10/09 21:58:30;;;;;;;0.20;0.20;;;;;;;12.27;78.13;101394.06;15598448;28;20265;-50
2023/10/09 22:06:05;;;;;;;0.20;0.10;;;;;;;11.90;79.00;101401.66;15607896;28;20038;-49
2023/10/09 22:13:39;;;;;;;0.35;0.35;;;;;;;12.35;77.63;101398.41;15606188;28;20038;-49
2023/10/09 22:21:15;;;;;;;0.35;0.28;;;;;;;12.02;78.60;101396.50;15606181;28;20120;-52
2023/10/09 22:28:50;;;;;;;0.20;0.20;;;;;;;11.85;79.00;101401.44;15607024;28;20057;-50
2023/10/09 22:36:27;;;;;;;0.20;0.20;;;;;;;11.73;80.18;101403.00;15595458;28;20281;-50
2023/10/09 22:44:05;;;;;;;2.28;1.85;;;;;;;12.04;79.16;101399.84;15591106;28;20153;-51
2023/10/09 22:51:49;;;;;;;0.27;0.27;;;;;;;12.09;78.39;101394.66;15615865;28;20065;-48
2023/10/09 22:59:26;;;;;;;0.20;0.20;;;;;;;11.96;79.16;101405.41;15601110;28;20053;-49
2023/10/09 23:07:12;;;;;;;0.28;0.28;;;;;;;12.15;78.13;101406.47;15615388;28;20363;-51
2023/10/09 23:14:45;;;;;;;0.38;0.38;;;;;;;11.86;79.03;101394.19;15612554;28;20273;-48
2023/10/09 23:22:47;;;;;;;0.15;0.15;;;;;;;11.90;78.81;101408.91;15608889;28;20414;-51
2023/10/09 23:30:24;;;;;;;0.82;0.40;;;;;;;11.99;79.11;101402.31;15614965;28;20041;-50
2023/10/09 23:45:56;;;;;;;0.28;0.28;;;;;;;12.04;79.19;101415.16;15614445;28;20119;-49
2023/10/09 23:53:35;;;;;;;0.10;0.10;;;;;;;12.14;78.61;101407.50;15610028;28;20056;-51
